Time;durP1;ratioP1;P1;durP2;ratioP2;P2;SDS_P1;SDS_P2;PMS_P1;PMS_P2;Temp;Humidity;BMP_temperature;BMP_pressure;BME280_temperature;BME280_humidity;BME280_pressure;Samples;Min_cycle;Max_cycle;Signal;HPM_P1;HPM_P2
2023/08/27 00:01:19;;;;;;;12.15;5.88;;;;;;;24.21;90.79;100165.50;5045132;28;20098;-78
2023/08/27 00:03:45;;;;;;;13.70;6.55;;;;;;;23.87;91.57;100117.94;5067216;28;20028;-80
2023/08/27 00:06:10;;;;;;;10.90;5.90;;;;;;;24.14;90.91;100158.63;5065993;28;20017;-79
2023/08/27 00:08:36;;;;;;;8.43;6.30;;;;;;;24.39;91.30;100172.06;5062385;28;20762;-78
2023/08/27 00:11:04;;;;;;;13.63;6.22;;;;;;;24.44;89.58;100128.91;5066459;28;20162;-78
2023/08/27 00:13:30;;;;;;;9.18;5.40;;;;;;;24.63;88.87;100138.03;5044042;28;20059;-78
2023/08/27 00:15:55;;;;;;;10.80;6.10;;;;;;;24.97;88.27;100160.94;5065213;28;20040;-77
2023/08/27 00:18:21;;;;;;;10.27;5.80;;;;;;;25.02;86.79;100148.47;5067047;28;20028;-79
2023/08/27 00:20:47;;;;;;;9.57;5.78;;;;;;;24.98;88.09;100164.44;5072486;28;20036;-79
2023/08/27 00:23:13;;;;;;;8.40;5.88;;;;;;;24.49;89.16;100116.44;5063877;28;20039;-77
2023/08/27 00:25:40;;;;;;;8.80;6.15;;;;;;;24.73;89.82;100164.25;5072337;28;20029;-77
2023/08/27 00:28:06;;;;;;;11.95;6.22;;;;;;;24.66;90.12;100166.16;5054426;28;20035;-77
2023/08/27 00:30:31;;;;;;;11.57;6.18;;;;;;;24.58;90.92;100147.84;5072429;28;20063;-75
2023/08/27 00:32:57;;;;;;;10.23;6.90;;;;;;;24.55;91.06;100147.97;5072430;28;20029;-79
2023/08/27 00:35:22;;;;;;;12.15;7.15;;;;;;;24.53;90.84;100132.13;5054345;28;20029;-78
2023/08/27 00:37:48;;;;;;;10.85;7.05;;;;;;;24.62;90.99;100144.22;5054185;28;20396;-73
2023/08/27 00:40:13;;;;;;;11.35;7.03;;;;;;;24.47;91.74;100128.81;5071781;28;20083;-75
2023/08/27 00:42:39;;;;;;;14.75;7.75;;;;;;;24.51;92.32;100151.56;5071992;28;20043;-78
2023/08/27 00:45:06;;;;;;;13.10;7.57;;;;;;;24.40;92.55;100157.13;5054104;28;20137;-78
2023/08/27 00:47:35;;;;;;;17.83;8.07;;;;;;;24.21;93.65;100141.75;5066829;28;20486;-80
2023/08/27 00:50:01;;;;;;;;;;;;;;;24.21;93.92;100154.06;5071786;28;20036;-80
2023/08/27 00:52:27;;;;;;;17.35;7.85;;;;;;;24.07;94.42;100157.03;5059449;28;20011;-78
2023/08/27 00:54:54;;;;;;;13.68;7.63;;;;;;;24.00;94.09;100145.78;5047769;28;20032;-78
2023/08/27 00:57:20;;;;;;;15.05;7.90;;;;;;;23.88;93.80;100140.78;5072092;28;20037;-79
2023/08/27 00:59:47;;;;;;;9.75;6.75;;;;;;;23.80;93.48;100154.13;5064755;28;20035;-80
2023/08/27 01:02:15;;;;;;;12.63;7.45;;;;;;;23.88;93.15;100146.03;5079999;28;20097;-78
2023/08/27 01:04:40;;;;;;;12.02;7.72;;;;;;;23.81;92.77;100131.25;5068137;28;20044;-78
2023/08/27 01:07:15;;;;;;;14.85;7.43;;;;;;;23.75;92.60;100153.34;5054680;28;20043;-80
2023/08/27 01:09:48;;;;;;;14.65;7.60;;;;;;;23.31;94.37;100140.25;5070616;28;20032;-76
2023/08/27 01:12:36;;;;;;;12.63;7.60;;;;;;;23.36;95.47;100153.34;5053977;28;20043;-77
2023/08/27 01:15:04;;;;;;;9.30;7.20;;;;;;;23.14;95.85;100135.31;5053424;28;20024;-79
2023/08/27 01:17:32;;;;;;;9.52;6.50;;;;;;;23.07;96.57;100149.50;5071881;28;20270;-76
2023/08/27 01:19:57;;;;;;;10.40;6.20;;;;;;;23.02;96.38;100133.78;5053669;28;20465;-77
2023/08/27 01:22:23;;;;;;;11.80;6.45;;;;;;;23.08;96.49;100143.34;5053632;28;20035;-77
2023/08/27 01:24:48;;;;;;;9.18;6.35;;;;;;;;;;5071558;28;20029;-79
2023/08/27 01:27:43;;;;;;;8.82;6.50;;;;;;;23.07;96.99;100146.88;5069576;28;20036;-78
2023/08/27 01:30:22;;;;;;;12.77;6.70;;;;;;;23.04;96.81;100142.53;5069983;28;20048;-80
2023/08/27 01:33:27;;;;;;;9.93;6.60;;;;;;;23.06;96.99;100145.97;5071500;28;20031;-77
2023/08/27 01:35:55;;;;;;;9.10;5.85;;;;;;;23.21;96.31;100143.97;5009274;28;20026;-77
2023/08/27 01:38:21;;;;;;;10.37;6.53;;;;;;;23.37;96.49;100131.38;5008863;28;20571;-76
2023/08/27 01:40:47;;;;;;;11.48;6.38;;;;;;;23.59;95.29;100119.44;5039639;28;20033;-77
2023/08/27 01:43:12;;;;;;;11.98;6.40;;;;;;;23.70;93.22;100105.16;5028575;28;20147;-78
2023/08/27 01:45:38;;;;;;;9.88;5.82;;;;;;;23.97;92.98;100116.00;5027959;28;20047;-76
2023/08/27 01:48:04;;;;;;;15.63;6.45;;;;;;;23.98;92.10;100079.03;5011926;28;20029;-77
2023/08/27 01:50:29;;;;;;;11.98;6.03;;;;;;;23.87;92.42;100092.44;5028486;28;20072;-75
2023/08/27 01:52:54;;;;;;;9.10;6.05;;;;;;;23.68;94.15;100092.00;5028352;28;20025;-76
2023/08/27 01:55:20;;;;;;;8.85;6.10;;;;;;;23.79;94.67;100111.97;5011425;28;20041;-81
2023/08/27 01:57:45;;;;;;;8.80;6.25;;;;;;;23.74;94.97;100109.47;5028571;28;20033;-77
2023/08/27 02:00:11;;;;;;;7.88;5.88;;;;;;;23.58;95.22;100093.13;5027899;28;20041;-77
2023/08/27 02:02:37;;;;;;;13.65;6.60;;;;;;;23.57;95.23;100109.84;5007968;28;20037;-82
2023/08/27 02:05:06;;;;;;;8.68;6.35;;;;;;;23.42;95.94;100108.41;5020666;28;20033;-78
2023/08/27 02:07:36;;;;;;;12.65;6.43;;;;;;;23.37;96.26;100123.47;5028121;28;20025;-75
2023/08/27 02:10:03;;;;;;;12.77;6.78;;;;;;;23.37;96.42;100129.59;5053594;28;20038;-77
2023/08/27 02:12:29;;;;;;;13.90;6.70;;;;;;;23.16;96.66;100101.09;5048957;28;20024;-77
2023/08/27 02:14:54;;;;;;;13.30;7.13;;;;;;;23.17;96.49;100108.09;5070074;28;20420;-76
2023/08/27 02:17:20;;;;;;;10.13;6.13;;;;;;;23.02;96.77;100088.19;5085809;28;20495;-78
2023/08/27 02:19:45;;;;;;;13.60;6.90;;;;;;;23.22;96.54;100112.34;5047290;28;20029;-81
2023/08/27 02:22:10;;;;;;;14.07;6.65;;;;;;;23.31;96.27;100099.88;5049191;28;20104;-80
2023/08/27 02:24:36;;;;;;;12.57;6.95;;;;;;;23.35;94.60;100091.91;5064124;28;20029;-77
2023/08/27 02:27:01;;;;;;;12.93;7.15;;;;;;;23.22;95.77;100093.06;5047461;28;20037;-75
2023/08/27 02:29:27;;;;;;;13.90;7.32;;;;;;;23.18;97.13;100100.16;5047326;28;20114;-76
2023/08/27 02:31:52;;;;;;;12.77;7.25;;;;;;;23.00;98.04;100088.19;5047361;28;20055;-77
2023/08/27 02:34:19;;;;;;;14.07;7.55;;;;;;;22.86;99.01;100080.56;5047523;28;20466;-78
2023/08/27 02:36:44;;;;;;;13.70;8.02;;;;;;;22.85;99.99;100094.63;5047678;28;20033;-78
2023/08/27 02:39:11;;;;;;;14.23;7.55;;;;;;;22.75;100.00;100112.38;5047199;28;20051;-77
2023/08/27 02:41:36;;;;;;;15.20;7.68;;;;;;;22.66;99.52;100104.66;5030670;28;20036;-77
2023/08/27 02:44:02;;;;;;;12.98;7.28;;;;;;;22.54;99.11;100110.13;5047197;28;20030;-77
2023/08/27 02:46:28;;;;;;;9.75;7.22;;;;;;;22.34;99.13;100103.44;5030241;28;20048;-79
2023/08/27 02:48:53;;;;;;;11.93;7.03;;;;;;;22.28;98.74;100111.44;5047266;28;20029;-75
2023/08/27 02:51:19;;;;;;;11.32;7.43;;;;;;;22.08;98.95;100101.25;5047602;28;20025;-83
2023/08/27 02:53:44;;;;;;;14.00;7.38;;;;;;;21.87;99.03;100091.94;5047022;28;20040;-79
2023/08/27 02:56:10;;;;;;;14.55;8.43;;;;;;;21.91;99.03;100115.53;5047506;28;20033;-82
2023/08/27 02:58:35;;;;;;;10.82;7.55;;;;;;;21.99;98.74;100118.03;5045752;28;20040;-80
2023/08/27 03:01:01;;;;;;;14.48;7.45;;;;;;;21.86;98.91;100112.13;5069793;28;20107;-79
2023/08/27 03:03:26;;;;;;;11.30;7.03;;;;;;;21.97;98.38;100107.56;5069802;28;20773;-81
2023/08/27 03:05:51;;;;;;;10.90;7.30;;;;;;;21.99;98.58;100097.00;5069948;28;20111;-78
2023/08/27 03:08:17;;;;;;;13.52;7.75;;;;;;;22.22;98.49;100101.91;5069521;28;20036;-79
2023/08/27 03:10:42;;;;;;;9.98;7.40;;;;;;;22.48;97.17;100120.78;5026772;28;20489;-79
2023/08/27 03:13:08;;;;;;;9.98;6.80;;;;;;;22.43;96.83;100100.69;5010682;28;20080;-81
2023/08/27 03:15:34;;;;;;;10.65;6.50;;;;;;;22.42;97.38;100106.84;4997273;28;20061;-77
2023/08/27 03:17:59;;;;;;;15.52;6.93;;;;;;;22.29;98.33;100105.28;5027246;28;20108;-78
2023/08/27 03:20:25;;;;;;;11.07;7.00;;;;;;;22.34;98.54;100098.19;5026582;28;20038;-75
2023/08/27 03:22:50;;;;;;;11.00;6.32;;;;;;;22.19;99.29;100103.72;5026564;28;20034;-74
2023/08/27 03:25:15;;;;;;;14.95;7.20;;;;;;;21.73;99.59;100037.00;5027351;28;20559;-79
2023/08/27 03:27:41;;;;;;;11.07;6.68;;;;;;;22.04;99.68;100102.22;5027264;28;20033;-79
2023/08/27 03:30:07;;;;;;;10.85;7.80;;;;;;;22.01;100.00;100118.91;5027115;28;20053;-83
2023/08/27 03:32:32;;;;;;;11.48;7.50;;;;;;;21.80;100.00;100102.56;5027933;28;20053;-77
2023/08/27 03:34:57;;;;;;;15.20;7.70;;;;;;;21.85;99.88;100112.16;5031611;28;20060;-77
2023/08/27 03:37:23;;;;;;;12.25;7.35;;;;;;;21.68;99.87;100108.00;5031535;28;20049;-79
2023/08/27 03:39:48;;;;;;;11.30;7.25;;;;;;;21.58;99.85;100096.78;5014833;28;20026;-77
2023/08/27 03:42:14;;;;;;;12.15;7.43;;;;;;;21.59;99.69;100108.13;5061874;28;20055;-77
2023/08/27 03:44:40;;;;;;;10.45;6.88;;;;;;;21.46;99.95;100086.41;5055744;28;20032;-79
2023/08/27 03:47:05;;;;;;;16.23;7.82;;;;;;;21.55;100.00;100112.53;5073740;28;20547;-79
2023/08/27 03:49:31;;;;;;;12.45;7.22;;;;;;;21.12;100.00;100053.59;5072637;28;20017;-77
2023/08/27 03:51:56;;;;;;;11.90;7.72;;;;;;;21.41;100.00;100117.97;5088915;28;20056;-83
2023/08/27 03:54:22;;;;;;;11.80;6.80;;;;;;;20.55;100.00;99979.94;5055817;28;20111;-76
2023/08/27 03:57:08;;;;;;;9.45;7.32;;;;;;;21.23;100.00;100118.22;5030063;28;20037;-78
2023/08/27 03:59:34;;;;;;;12.43;7.25;;;;;;;21.03;100.00;100098.31;5031017;28;20041;-78
2023/08/27 04:01:59;;;;;;;17.52;7.30;;;;;;;21.00;100.00;100099.22;5030771;28;20041;-77
2023/08/27 04:04:25;;;;;;;11.55;6.70;;;;;;;21.00;100.00;100108.88;5031132;28;20139;-76
2023/08/27 04:06:50;;;;;;;11.77;6.75;;;;;;;20.48;100.00;100037.69;5030828;28;20053;-78
2023/08/27 04:09:16;;;;;;;15.38;7.35;;;;;;;20.45;100.00;100047.34;5030949;28;20037;-76
2023/08/27 04:11:41;;;;;;;14.93;7.80;;;;;;;20.95;100.00;100136.94;5030772;28;20526;-77
2023/08/27 04:14:06;;;;;;;12.05;7.60;;;;;;;20.69;100.00;100096.91;5013375;28;20029;-78
2023/08/27 04:16:32;;;;;;;16.90;7.68;;;;;;;20.80;100.00;100117.84;5014117;28;20037;-80
2023/08/27 04:18:57;;;;;;;13.50;6.85;;;;;;;20.85;100.00;100129.16;5030730;28;20041;-79
2023/08/27 04:21:23;;;;;;;14.45;7.43;;;;;;;20.99;100.00;100134.22;5030564;28;20045;-78
2023/08/27 04:23:48;;;;;;;9.23;7.03;;;;;;;21.05;100.00;100129.78;5030579;28;20073;-82
2023/08/27 04:26:18;;;;;;;14.95;7.90;;;;;;;21.16;100.00;100127.94;5029330;28;20402;-78
2023/08/27 04:32:05;;;;;;;13.65;9.10;;;;;;;21.36;100.00;100135.56;5227169;22;20085;-81
2023/08/27 04:34:30;;;;;;;14.93;8.55;;;;;;;21.24;100.00;100112.94;5034928;28;20505;-78
2023/08/27 04:36:56;;;;;;;17.70;9.00;;;;;;;21.36;100.00;100135.56;5052843;28;20021;-78
2023/08/27 04:39:22;;;;;;;13.13;8.50;;;;;;;21.38;100.00;100133.75;5053219;28;20430;-80
2023/08/27 04:41:48;;;;;;;12.80;8.25;;;;;;;21.34;100.00;100132.94;5053118;28;20519;-78
2023/08/27 04:44:14;;;;;;;16.27;8.60;;;;;;;20.95;100.00;100048.56;5035121;28;20041;-78
2023/08/27 04:46:39;;;;;;;14.00;8.30;;;;;;;21.53;100.00;100129.22;5052815;28;20029;-78
2023/08/27 04:49:05;;;;;;;9.55;7.75;;;;;;;21.53;100.00;100122.19;5052514;28;20036;-83
2023/08/27 04:51:30;;;;;;;14.10;8.27;;;;;;;21.38;100.00;100094.38;5052311;28;20029;-78
2023/08/27 04:53:56;;;;;;;10.85;8.13;;;;;;;21.60;100.00;100123.03;5053165;28;20565;-78
2023/08/27 04:56:21;;;;;;;11.30;8.07;;;;;;;21.75;100.00;100142.94;5034857;28;20454;-78
2023/08/27 04:58:46;;;;;;;13.32;8.07;;;;;;;21.67;100.00;100132.56;5052556;28;20063;-79
2023/08/27 05:01:12;;;;;;;11.70;8.13;;;;;;;21.75;100.00;100146.44;5034910;28;20025;-77
2023/08/27 05:03:38;;;;;;;11.10;8.38;;;;;;;21.85;100.00;100146.31;5052360;28;20107;-79
2023/08/27 05:06:04;;;;;;;13.50;8.35;;;;;;;21.78;100.00;100130.63;5052463;28;20032;-82
2023/08/27 05:08:30;;;;;;;14.45;7.93;;;;;;;21.85;100.00;100135.81;5052450;28;20037;-78
2023/08/27 05:10:55;;;;;;;10.52;7.50;;;;;;;21.99;100.00;100141.69;5051859;28;20558;-78
2023/08/27 05:13:21;;;;;;;12.55;8.65;;;;;;;21.99;100.00;100133.81;5052314;28;20098;-78
2023/08/27 05:15:46;;;;;;;12.68;7.90;;;;;;;22.04;100.00;100136.38;5034476;28;20083;-78
2023/08/27 05:18:11;;;;;;;14.32;8.55;;;;;;;21.86;100.00;100082.31;5052592;28;20039;-77
2023/08/27 05:20:37;;;;;;;11.38;8.20;;;;;;;22.17;100.00;100131.78;5051841;28;20476;-78
2023/08/27 05:23:03;;;;;;;13.60;7.95;;;;;;;22.34;100.00;100132.38;5051784;28;20032;-79
2023/08/27 05:25:29;;;;;;;13.88;8.05;;;;;;;22.44;100.00;100133.09;5051784;28;20043;-81
2023/08/27 05:27:54;;;;;;;11.98;8.20;;;;;;;22.43;100.00;100120.84;5052086;28;20025;-78
2023/08/27 05:30:20;;;;;;;9.82;7.65;;;;;;;22.16;100.00;100061.69;5033724;28;20037;-79
2023/08/27 05:32:45;;;;;;;9.38;7.95;;;;;;;22.54;100.00;100120.66;5051736;28;20079;-77
2023/08/27 05:35:11;;;;;;;19.88;8.57;;;;;;;22.70;100.00;100137.91;5033995;28;20037;-78
2023/08/27 05:37:37;;;;;;;13.75;8.20;;;;;;;22.76;100.00;100145.69;5033895;28;20029;-78
2023/08/27 05:40:05;;;;;;;9.98;7.72;;;;;;;22.77;100.00;100144.78;5051738;28;20113;-80
2023/08/27 05:42:32;;;;;;;12.30;7.90;;;;;;;22.39;100.00;100072.72;5051707;28;20086;-78
2023/08/27 05:44:58;;;;;;;12.68;8.07;;;;;;;22.78;100.00;100141.25;5051691;28;20074;-79
2023/08/27 05:47:23;;;;;;;10.35;7.57;;;;;;;22.86;100.00;100140.25;5051334;28;20033;-78
2023/08/27 05:49:49;;;;;;;11.00;7.60;;;;;;;23.02;100.00;100139.06;5051421;28;20032;-78
2023/08/27 05:52:14;;;;;;;16.02;7.78;;;;;;;22.92;100.00;100140.16;5051568;28;20032;-77
2023/08/27 05:54:40;;;;;;;12.60;7.93;;;;;;;23.04;100.00;100141.66;5051515;28;20052;-78
2023/08/27 05:57:05;;;;;;;10.98;7.55;;;;;;;22.58;100.00;100069.72;5050630;28;20052;-78
2023/08/27 05:59:31;;;;;;;9.68;7.07;;;;;;;23.15;100.00;100138.81;5051553;28;20017;-78
2023/08/27 06:01:58;;;;;;;11.25;6.93;;;;;;;23.37;100.00;100148.03;5051214;28;20174;-78
2023/08/27 06:04:24;;;;;;;9.07;7.25;;;;;;;23.21;100.00;100091.31;5050780;28;20028;-78
2023/08/27 06:06:49;;;;;;;13.77;7.13;;;;;;;23.68;100.00;100144.72;5051080;28;20036;-80
2023/08/27 06:09:16;;;;;;;11.23;7.95;;;;;;;23.84;100.00;100149.63;5051231;28;20588;-78
2023/08/27 06:11:41;;;;;;;21.38;8.52;;;;;;;24.09;98.45;100152.63;5033116;28;20048;-78
2023/08/27 06:14:07;;;;;;;14.73;8.20;;;;;;;24.18;100.00;100159.44;5051101;28;20159;-81
2023/08/27 06:16:33;;;;;;;17.50;9.98;;;;;;;24.20;99.03;100152.31;5051037;28;20449;-78
2023/08/27 06:18:59;;;;;;;19.02;9.43;;;;;;;24.15;98.16;100107.63;5052346;28;20033;-77
2023/08/27 06:21:24;;;;;;;11.75;7.60;;;;;;;24.58;97.77;100161.06;5054444;28;20408;-78
2023/08/27 06:23:50;;;;;;;16.63;7.95;;;;;;;24.53;98.69;100163.81;5035313;28;20504;-79
2023/08/27 06:26:16;;;;;;;11.35;7.53;;;;;;;24.54;99.54;100156.78;5051795;28;20504;-79
2023/08/27 06:28:42;;;;;;;17.45;7.65;;;;;;;24.50;100.00;100144.53;5048168;28;20042;-81
2023/08/27 06:31:07;;;;;;;11.45;7.55;;;;;;;24.58;100.00;100147.00;5045756;28;20143;-78
2023/08/27 06:33:33;;;;;;;12.90;8.32;;;;;;;24.65;100.00;100125.72;5050202;28;20059;-79
2023/08/27 06:35:58;;;;;;;10.57;8.05;;;;;;;24.84;99.63;100130.50;5045888;28;20817;-81
2023/08/27 06:38:24;;;;;;;12.10;8.32;;;;;;;25.08;99.24;100151.84;5048206;28;20044;-78
2023/08/27 06:40:50;;;;;;;17.13;8.20;;;;;;;25.03;99.49;100134.34;5050476;28;21270;-80
2023/08/27 06:43:16;;;;;;;16.77;8.60;;;;;;;25.25;99.35;100141.66;5047325;28;20037;-81
2023/08/27 06:45:41;;;;;;;12.27;7.80;;;;;;;25.48;98.11;100153.34;5048692;28;20123;-78
2023/08/27 06:48:08;;;;;;;15.60;9.15;;;;;;;25.55;99.22;100143.47;5031646;28;20017;-77
2023/08/27 06:50:34;;;;;;;28.95;13.30;;;;;;;25.43;97.13;100092.69;5049423;28;20112;-78
2023/08/27 06:52:59;;;;;;;11.90;7.82;;;;;;;25.80;95.72;100125.91;5032582;28;20166;-80
2023/08/27 06:55:24;;;;;;;14.95;9.13;;;;;;;26.03;95.45;100153.38;5050382;28;20119;-74
2023/08/27 06:57:50;;;;;;;21.92;11.88;;;;;;;26.02;91.76;100134.94;5050279;28;20032;-80
2023/08/27 07:00:17;;;;;;;14.13;8.45;;;;;;;26.16;91.51;100122.16;5049316;28;20094;-80
2023/08/27 07:02:43;;;;;;;17.10;8.27;;;;;;;26.30;89.62;100124.34;5049455;28;20115;-79
2023/08/27 07:05:09;;;;;;;35.33;17.20;;;;;;;26.43;89.77;100123.00;5029413;28;20408;-79
2023/08/27 07:07:37;;;;;;;24.60;14.32;;;;;;;26.61;90.05;100140.03;5029566;28;20034;-76
2023/08/27 07:10:04;;;;;;;36.55;17.13;;;;;;;26.25;89.17;100076.00;5043723;28;20636;-82
2023/08/27 07:12:32;;;;;;;25.88;15.50;;;;;;;26.76;89.99;100154.53;5032364;28;20040;-79
2023/08/27 07:14:59;;;;;;;12.02;8.10;;;;;;;26.62;90.12;100133.81;5050112;28;20108;-78
2023/08/27 07:17:24;;;;;;;13.93;6.82;;;;;;;26.70;90.01;100144.13;5050054;28;20564;-72
2023/08/27 07:19:50;;;;;;;11.50;6.55;;;;;;;26.63;87.40;100121.41;5049891;28;20021;-70
2023/08/27 07:22:15;;;;;;;12.48;7.22;;;;;;;26.70;88.22;100136.19;5045212;28;20412;-77
2023/08/27 07:24:42;;;;;;;14.77;7.28;;;;;;;26.81;83.47;100135.84;5050088;28;20033;-78
2023/08/27 07:27:08;;;;;;;23.48;8.52;;;;;;;26.98;81.96;100151.13;5032068;28;20475;-82
2023/08/27 07:29:33;;;;;;;26.90;7.70;;;;;;;26.96;81.50;100145.00;5050176;28;20052;-78
2023/08/27 07:31:59;;;;;;;12.35;6.85;;;;;;;26.91;81.87;100131.06;5049063;28;20044;-78
2023/08/27 07:34:24;;;;;;;14.95;7.38;;;;;;;26.94;83.95;100138.91;5048846;28;20024;-77
2023/08/27 07:36:49;;;;;;;9.50;6.53;;;;;;;26.98;82.84;100142.31;5050074;28;20224;-79
2023/08/27 07:39:15;;;;;;;15.57;6.63;;;;;;;26.32;82.03;100037.84;5050372;28;20427;-81
2023/08/27 07:41:40;;;;;;;22.67;8.80;;;;;;;26.88;79.79;100087.03;5049926;28;20055;-78
2023/08/27 07:44:06;;;;;;;17.88;7.85;;;;;;;27.21;79.80;100133.50;5042102;28;20029;-82
2023/08/27 07:46:32;;;;;;;18.92;9.07;;;;;;;27.29;78.54;100132.31;5013916;28;20037;-78
2023/08/27 07:48:57;;;;;;;18.35;7.07;;;;;;;27.45;78.84;100147.63;5049655;28;20033;-78
2023/08/27 07:51:24;;;;;;;15.20;7.15;;;;;;;27.70;75.75;100133.41;5049656;28;20225;-77
2023/08/27 07:53:49;;;;;;;10.90;6.78;;;;;;;27.70;76.72;100104.25;5048107;28;20032;-78
2023/08/27 07:56:15;;;;;;;14.57;7.47;;;;;;;27.79;76.78;100122.47;5049520;28;20033;-77
2023/08/27 07:58:40;;;;;;;17.67;10.95;;;;;;;27.82;77.32;100114.38;5048860;28;20048;-77
2023/08/27 08:01:06;;;;;;;14.38;6.57;;;;;;;28.03;71.28;100122.38;5048860;28;20036;-75
2023/08/27 08:03:31;;;;;;;12.90;6.68;;;;;;;28.09;72.96;100092.97;5047801;28;20477;-77
2023/08/27 08:05:57;;;;;;;10.52;6.30;;;;;;;28.11;69.34;100093.75;5031694;28;20032;-77
2023/08/27 08:08:22;;;;;;;10.40;6.22;;;;;;;28.43;66.31;100109.25;5047793;28;20033;-80
2023/08/27 08:10:48;;;;;;;12.52;5.85;;;;;;;28.64;63.67;100102.16;5042710;28;20040;-77
2023/08/27 08:13:13;;;;;;;12.75;5.88;;;;;;;28.64;63.53;100096.81;5048994;28;20108;-75
2023/08/27 08:15:38;;;;;;;12.85;5.22;;;;;;;28.79;58.96;100097.97;5031717;28;20113;-78
2023/08/27 08:18:04;;;;;;;12.95;5.63;;;;;;;28.90;58.95;100087.72;5049367;28;20037;-79
2023/08/27 08:20:29;;;;;;;8.57;5.25;;;;;;;29.02;56.58;100086.28;5034350;28;20032;-77
2023/08/27 08:22:55;;;;;;;8.77;4.55;;;;;;;29.08;56.50;100075.34;5053147;28;20036;-75
2023/08/27 08:25:22;;;;;;;10.27;4.65;;;;;;;29.36;56.38;100098.03;5046926;28;20036;-76
2023/08/27 08:27:48;;;;;;;8.98;5.00;;;;;;;29.26;55.67;100067.44;5050877;28;20032;-78
2023/08/27 08:30:13;;;;;;;7.50;4.28;;;;;;;29.27;55.92;100077.16;5051420;28;20420;-74
2023/08/27 08:32:39;;;;;;;7.43;4.88;;;;;;;29.34;56.14;100083.94;5051854;28;20424;-77
2023/08/27 08:35:05;;;;;;;9.82;5.65;;;;;;;28.99;46.97;100012.88;5052512;28;20403;-76
2023/08/27 08:37:30;;;;;;;10.98;4.70;;;;;;;29.60;52.34;100065.88;5052117;28;20029;-72
2023/08/27 08:39:55;;;;;;;8.63;3.92;;;;;;;29.70;56.24;100083.09;5051870;28;20029;-77
2023/08/27 08:42:40;;;;;;;12.23;3.90;;;;;;;28.97;54.10;99939.47;5040781;28;20039;-78
2023/08/27 08:45:27;;;;;;;7.05;4.45;;;;;;;29.82;51.61;100070.97;5040605;28;20059;-81
2023/08/27 08:48:14;;;;;;;17.60;4.95;;;;;;;29.84;48.81;100064.63;5042824;28;20127;-81
2023/08/27 08:50:41;;;;;;;11.07;3.95;;;;;;;29.74;45.05;100027.94;5025922;28;20067;-82
2023/08/27 08:53:18;;;;;;;9.50;4.03;;;;;;;30.10;40.16;100053.66;5029246;28;20049;-79
2023/08/27 08:55:46;;;;;;;7.32;3.00;;;;;;;30.34;43.51;100065.72;5012832;28;20107;-79
2023/08/27 08:58:13;;;;;;;6.27;3.87;;;;;;;30.36;42.21;100054.09;5029320;28;20048;-82
2023/08/27 09:00:40;;;;;;;12.82;4.32;;;;;;;30.28;43.35;100025.22;5010177;28;20284;-85
2023/08/27 09:03:06;;;;;;;9.20;3.83;;;;;;;30.61;40.61;100064.38;5009766;28;20066;-87
2023/08/27 09:05:32;;;;;;;8.40;3.60;;;;;;;30.63;39.51;100042.03;5008187;28;20080;-88
2023/08/27 09:07:59;;;;;;;10.70;4.00;;;;;;;30.78;41.77;100042.13;5009400;28;20054;-81
2023/08/27 09:10:25;;;;;;;13.45;3.70;;;;;;;30.89;42.83;100039.72;4989646;28;20035;-84
2023/08/27 09:12:56;;;;;;;10.43;4.10;;;;;;;31.06;39.71;100054.78;4990108;28;20133;-89
2023/08/27 09:15:23;;;;;;;18.33;5.07;;;;;;;31.00;36.96;100031.16;4999511;28;20093;-80
2023/08/27 09:17:48;;;;;;;7.40;3.50;;;;;;;31.28;39.75;100058.97;4973477;28;20414;-83
2023/08/27 09:20:14;;;;;;;7.00;3.22;;;;;;;31.35;39.67;100038.16;4972607;28;20134;-78
2023/08/27 09:22:41;;;;;;;5.97;2.85;;;;;;;31.38;38.88;100032.63;4971673;28;20065;-75
2023/08/27 09:25:27;;;;;;;5.22;2.95;;;;;;;31.35;38.46;100041.66;4989796;28;20077;-75
2023/08/27 09:27:53;;;;;;;5.18;2.92;;;;;;;31.05;39.68;100022.91;4972505;28;20042;-79
2023/08/27 09:30:21;;;;;;;13.23;3.28;;;;;;;31.24;41.93;100039.63;4988415;28;20049;-79
2023/08/27 09:32:48;;;;;;;8.85;3.00;;;;;;;31.37;39.82;100031.78;4972918;28;20054;-79
2023/08/27 09:35:13;;;;;;;11.75;2.83;;;;;;;31.44;38.06;100022.47;4936353;28;20466;-78
2023/08/27 09:37:41;;;;;;;8.30;2.88;;;;;;;31.55;39.15;100018.31;4951373;28;20047;-78
2023/08/27 09:40:08;;;;;;;5.18;2.58;;;;;;;31.68;36.57;100015.81;4935175;28;20567;-80
2023/08/27 09:42:33;;;;;;;4.93;2.80;;;;;;;31.72;40.38;99999.53;4960979;28;20085;-80
2023/08/27 09:44:59;;;;;;;8.05;3.08;;;;;;;31.88;41.37;100012.00;5005857;28;20030;-80
2023/08/27 09:47:36;;;;;;;5.55;3.00;;;;;;;32.00;39.81;100011.25;4989360;28;20075;-80
2023/08/27 09:50:07;;;;;;;6.78;4.72;;;;;;;32.00;37.40;100003.25;5006834;28;20457;-79
2023/08/27 09:52:33;;;;;;;9.35;3.10;;;;;;;32.21;37.07;100019.78;4999991;28;20448;-80
2023/08/27 09:54:58;;;;;;;6.32;3.08;;;;;;;32.17;38.21;99999.53;4989762;28;20026;-81
2023/08/27 09:57:24;;;;;;;7.65;2.63;;;;;;;32.28;33.71;99992.69;4989766;28;20038;-80
2023/08/27 09:59:50;;;;;;;4.90;2.63;;;;;;;32.35;33.36;100002.94;5028680;28;20056;-83
2023/08/27 10:02:16;;;;;;;4.15;2.50;;;;;;;32.41;32.39;100002.56;5051541;28;20494;-83
2023/08/27 10:04:58;;;;;;;8.18;3.00;;;;;;;32.56;33.72;100013.22;5051915;28;20060;-81
2023/08/27 10:07:24;;;;;;;8.77;3.25;;;;;;;32.65;33.20;99980.59;5033551;28;20555;-80
2023/08/27 10:09:53;;;;;;;13.23;4.28;;;;;;;32.96;32.91;99994.72;5049610;28;20021;-79
2023/08/27 10:12:21;;;;;;;6.75;2.88;;;;;;;33.05;33.07;99988.75;5049494;28;20021;-77
2023/08/27 10:14:47;;;;;;;5.70;2.70;;;;;;;33.18;29.59;99990.63;5008988;28;20041;-84
2023/08/27 10:17:14;;;;;;;6.55;2.97;;;;;;;33.29;33.02;99982.78;4992649;28;20045;-84
2023/08/27 10:19:40;;;;;;;6.22;2.85;;;;;;;33.33;34.11;99980.75;4976686;28;20047;-82
2023/08/27 10:22:06;;;;;;;6.50;3.22;;;;;;;33.41;34.45;99990.94;4986851;28;20034;-84
2023/08/27 10:24:33;;;;;;;4.43;2.72;;;;;;;33.07;35.47;99927.13;4976032;28;20456;-78
2023/08/27 10:27:00;;;;;;;7.45;3.13;;;;;;;33.64;35.72;99978.72;4969521;28;20422;-79
2023/08/27 10:29:28;;;;;;;6.93;4.22;;;;;;;33.57;34.16;99980.06;4944741;28;20042;-80
2023/08/27 10:31:55;;;;;;;13.13;4.05;;;;;;;33.71;35.36;99977.34;4969442;28;20059;-80
2023/08/27 10:34:24;;;;;;;6.47;2.92;;;;;;;33.69;33.40;99969.38;4969701;28;20035;-83
2023/08/27 10:36:52;;;;;;;;;;;;;;;33.80;33.64;99974.00;4970123;28;20499;-85
2023/08/27 10:39:21;;;;;;;7.25;2.80;;;;;;;33.92;34.66;99975.03;4969334;28;19918;-81
2023/08/27 10:41:46;;;;;;;7.30;2.85;;;;;;;33.95;35.21;99973.97;4969805;28;20074;-80
2023/08/27 10:44:19;;;;;;;7.30;3.38;;;;;;;34.11;33.88;99971.06;4969217;28;20077;-80
2023/08/27 10:47:09;;;;;;;10.52;3.22;;;;;;;34.25;34.42;99972.78;4986365;28;20038;-78
2023/08/27 10:49:39;;;;;;;5.28;3.30;;;;;;;33.92;36.47;99912.56;4988590;28;20045;-78
2023/08/27 10:52:26;;;;;;;6.25;3.03;;;;;;;34.30;33.31;99958.09;4988495;28;20125;-78
2023/08/27 10:55:01;;;;;;;8.20;2.95;;;;;;;34.36;33.27;99970.25;4987781;28;20044;-79
2023/08/27 10:57:26;;;;;;;8.27;3.30;;;;;;;34.27;34.02;99958.31;4988721;28;20037;-86
2023/08/27 11:00:06;;;;;;;5.25;2.78;;;;;;;34.24;35.99;99963.03;4988042;28;20480;-80
2023/08/27 11:03:12;;;;;;;8.32;3.05;;;;;;;34.26;34.19;99961.97;4994017;28;20034;-80
2023/08/27 11:05:39;;;;;;;7.85;2.83;;;;;;;34.25;34.78;99954.88;5027938;28;20030;-82
2023/08/27 11:08:16;;;;;;;6.57;2.70;;;;;;;34.28;34.65;99970.75;5027002;28;20127;-87
2023/08/27 11:10:42;;;;;;;4.40;2.75;;;;;;;34.29;34.01;99945.66;5027274;28;20116;-83
2023/08/27 11:13:36;;;;;;;4.68;2.70;;;;;;;34.42;33.02;99955.53;5027150;28;20112;-81
2023/08/27 11:16:13;;;;;;;10.82;4.40;;;;;;;34.51;31.75;99933.44;5027066;28;20028;-81
2023/08/27 11:18:50;;;;;;;6.65;3.05;;;;;;;34.80;34.44;99944.69;5032009;28;20167;-81
2023/08/27 11:21:25;;;;;;;6.55;3.25;;;;;;;34.89;34.26;99932.47;5049598;28;20094;-82
2023/08/27 11:24:25;;;;;;;5.40;3.28;;;;;;;34.75;34.33;99928.09;5048544;28;20040;-88